createdAt,value
2022-08-19T00:02:12.567Z,27.60
2022-08-19T00:04:41.376Z,20.40
2022-08-19T00:07:11.522Z,22.80
2022-08-19T00:09:39.617Z,24.90
2022-08-19T00:12:07.937Z,23.10
2022-08-19T00:14:36.214Z,23.70
2022-08-19T00:17:06.090Z,23.20
2022-08-19T00:19:35.037Z,22.10
2022-08-19T00:22:03.693Z,22.70
2022-08-19T00:24:32.283Z,26.30
2022-08-19T00:27:25.582Z,28.80
2022-08-19T00:29:52.792Z,26.80
2022-08-19T00:32:22.069Z,24.20
2022-08-19T00:34:50.259Z,27.50
2022-08-19T00:37:18.426Z,22.30
2022-08-19T00:39:49.070Z,22.40
2022-08-19T00:42:18.259Z,23.00
2022-08-19T00:44:47.599Z,26.00
2022-08-19T00:47:16.076Z,26.10
2022-08-19T00:49:51.821Z,25.10
2022-08-19T00:52:30.395Z,23.30
2022-08-19T00:54:59.804Z,22.70
2022-08-19T00:57:33.810Z,23.00
2022-08-19T01:00:03.552Z,30.00
2022-08-19T01:02:33.386Z,24.80
2022-08-19T01:05:05.973Z,25.50
2022-08-19T01:07:38.206Z,24.20
2022-08-19T01:10:10.083Z,23.00
2022-08-19T01:12:39.735Z,20.10
2022-08-19T01:15:10.949Z,25.50
2022-08-19T01:17:41.374Z,21.30
2022-08-19T01:20:20.410Z,23.20
2022-08-19T01:22:55.061Z,37.80
2022-08-19T01:25:29.011Z,55.00
2022-08-19T01:27:59.114Z,63.20
2022-08-19T01:30:38.842Z,74.00
2022-08-19T01:33:07.119Z,80.70
2022-08-19T01:35:36.499Z,85.60
2022-08-19T01:38:09.409Z,96.00
2022-08-19T01:40:41.086Z,100.90
2022-08-19T01:43:09.587Z,112.10
2022-08-19T01:45:40.305Z,100.40
2022-08-19T01:48:09.242Z,105.10
2022-08-19T01:50:37.674Z,101.40
2022-08-19T01:53:10.707Z,102.80
2022-08-19T01:55:42.694Z,112.00
2022-08-19T01:58:19.860Z,118.00
2022-08-19T02:00:48.735Z,118.20
2022-08-19T02:03:17.496Z,117.90
2022-08-19T02:05:57.018Z,114.40
2022-08-19T02:08:25.186Z,119.30
2022-08-19T02:10:53.466Z,125.40
2022-08-19T02:13:26.194Z,112.90
2022-08-19T02:15:55.180Z,119.70
2022-08-19T02:18:23.377Z,128.00
2022-08-19T02:20:57.202Z,112.30
2022-08-19T02:23:25.528Z,128.80
2022-08-19T02:25:53.828Z,115.50
2022-08-19T02:28:21.998Z,121.90
2022-08-19T02:30:50.114Z,129.30
2022-08-19T02:33:18.342Z,120.80
2022-08-19T02:35:47.777Z,119.10
2022-08-19T02:38:28.166Z,122.80
2022-08-19T02:41:03.088Z,119.90
2022-08-19T02:43:37.074Z,112.90
2022-08-19T02:46:22.327Z,118.80
2022-08-19T02:48:55.134Z,121.00
2022-08-19T02:51:27.720Z,112.40
2022-08-19T02:53:55.921Z,119.50
2022-08-19T02:56:26.497Z,130.10
2022-08-19T02:58:58.211Z,122.80
2022-08-19T03:01:30.216Z,124.90
2022-08-19T03:04:00.556Z,119.90
2022-08-19T03:06:29.183Z,119.20
2022-08-19T03:09:05.037Z,126.80
2022-08-19T03:11:34.438Z,130.30
2022-08-19T03:14:05.330Z,129.40
2022-08-19T03:16:41.018Z,138.10
2022-08-19T03:19:09.546Z,138.70
2022-08-19T03:21:37.816Z,143.60
2022-08-19T03:24:09.641Z,143.10
2022-08-19T03:26:47.154Z,132.30
2022-08-19T03:29:16.316Z,134.30
2022-08-19T03:32:05.215Z,133.30
2022-08-19T03:34:35.733Z,127.20
2022-08-19T03:37:10.268Z,123.30
2022-08-19T03:39:40.641Z,132.40
2022-08-19T03:42:38.594Z,115.10
2022-08-19T03:44:59.616Z,104.60
2022-08-19T03:47:27.881Z,104.10
2022-08-19T03:49:56.119Z,99.30
2022-08-19T03:52:24.425Z,94.90
2022-08-19T03:54:52.887Z,98.10
2022-08-19T03:57:21.494Z,103.10
2022-08-19T03:59:53.631Z,111.80
2022-08-19T04:02:22.567Z,112.60
2022-08-19T04:04:55.483Z,109.40
2022-08-19T04:07:23.660Z,110.80
2022-08-19T04:10:10.641Z,115.40
2022-08-19T04:12:40.533Z,115.60
2022-08-19T04:15:09.577Z,116.00
2022-08-19T04:17:37.686Z,112.40
2022-08-19T04:20:07.045Z,112.40
2022-08-19T04:22:35.474Z,120.10
2022-08-19T04:25:04.359Z,134.30
2022-08-19T04:27:33.796Z,136.20
2022-08-19T04:30:01.972Z,124.20
2022-08-19T04:32:31.602Z,123.10
2022-08-19T04:35:01.399Z,109.40
2022-08-19T04:37:44.931Z,118.70
2022-08-19T04:40:32.164Z,109.60
2022-08-19T04:43:00.440Z,111.20
2022-08-19T04:45:29.361Z,107.70
2022-08-19T04:48:28.110Z,103.50
2022-08-19T04:51:01.196Z,124.40
2022-08-19T04:53:35.517Z,119.80
2022-08-19T04:56:15.375Z,131.90
2022-08-19T04:58:46.353Z,119.70
2022-08-19T05:01:19.124Z,134.40
2022-08-19T05:03:49.765Z,140.50
2022-08-19T05:06:20.712Z,149.20
2022-08-19T05:08:50.151Z,136.80
2022-08-19T05:11:26.671Z,135.90
2022-08-19T05:13:56.248Z,135.20
2022-08-19T05:16:27.598Z,146.40
2022-08-19T05:19:15.802Z,144.70
2022-08-19T05:22:04.162Z,140.90
2022-08-19T05:24:35.241Z,144.80
2022-08-19T05:27:06.306Z,141.00
2022-08-19T05:29:36.523Z,135.50
2022-08-19T05:32:11.749Z,132.70
2022-08-19T05:37:09.534Z,133.90
2022-08-19T05:39:40.036Z,145.80
2022-08-19T05:42:10.712Z,121.70
2022-08-19T05:44:45.896Z,116.50
2022-08-19T05:47:16.114Z,120.40
2022-08-19T05:49:44.673Z,103.00
2022-08-19T05:52:18.572Z,121.20
2022-08-19T05:54:51.435Z,116.70
2022-08-19T05:57:20.579Z,110.70
2022-08-19T05:59:52.763Z,115.40
2022-08-19T06:02:31.913Z,92.20
2022-08-19T06:05:04.988Z,82.90
2022-08-19T06:07:33.195Z,91.20
2022-08-19T06:10:03.101Z,75.60
2022-08-19T06:12:36.117Z,76.00
2022-08-19T06:15:12.622Z,75.40
2022-08-19T06:17:42.941Z,69.40
2022-08-19T06:20:14.418Z,63.10
2022-08-19T06:22:45.966Z,56.10
2022-08-19T06:25:15.985Z,50.10
2022-08-19T06:30:35.971Z,44.30
2022-08-19T06:33:04.309Z,32.90
2022-08-19T06:35:32.710Z,33.50
2022-08-19T06:38:00.914Z,38.40
2022-08-19T06:40:31.368Z,33.30
2022-08-19T06:43:03.673Z,37.30
2022-08-19T06:45:39.819Z,33.40
2022-08-19T06:48:08.532Z,41.50
2022-08-19T06:50:39.799Z,42.90
2022-08-19T06:53:09.367Z,41.30
2022-08-19T06:55:38.662Z,42.10
2022-08-19T06:58:07.941Z,38.00
2022-08-19T07:00:37.963Z,38.20
2022-08-19T07:03:08.752Z,36.20
2022-08-19T07:05:45.732Z,32.80
2022-08-19T07:08:15.021Z,32.50
2022-08-19T07:10:47.151Z,29.50
2022-08-19T07:13:16.239Z,27.90
2022-08-19T07:15:44.393Z,26.30
2022-08-19T07:18:12.589Z,27.70
2022-08-19T07:20:42.972Z,24.90
2022-08-19T07:23:15.967Z,22.00
2022-08-19T07:25:52.953Z,23.30
2022-08-19T07:28:24.736Z,18.90
2022-08-19T07:30:53.849Z,27.30
2022-08-19T07:33:22.185Z,24.20
2022-08-19T07:35:51.014Z,16.10
2022-08-19T07:38:19.222Z,15.20
2022-08-19T07:40:47.528Z,15.10
2022-08-19T07:43:17.080Z,14.20
2022-08-19T07:45:48.116Z,12.30
2022-08-19T07:48:16.202Z,12.70
2022-08-19T07:50:44.490Z,18.50
2022-08-19T07:53:13.508Z,12.10
2022-08-19T07:55:43.830Z,10.90
2022-08-19T07:58:15.344Z,9.60
2022-08-19T08:00:45.470Z,10.20
2022-08-19T08:03:15.196Z,9.40
2022-08-19T08:06:02.319Z,9.00
2022-08-19T08:08:49.611Z,5.90
2022-08-19T08:11:21.218Z,11.50
2022-08-19T08:14:00.931Z,10.40
2022-08-19T08:19:25.521Z,9.10
2022-08-19T08:21:58.747Z,6.10
2022-08-19T08:24:29.512Z,7.20
2022-08-19T08:27:01.619Z,9.20
2022-08-19T08:29:34.807Z,7.50
2022-08-19T08:32:13.869Z,8.50
2022-08-19T08:34:43.908Z,9.20
2022-08-19T08:37:12.086Z,6.10
2022-08-19T08:39:42.829Z,11.10
2022-08-19T08:42:17.768Z,6.50
2022-08-19T08:45:16.875Z,6.10
2022-08-19T08:47:51.107Z,5.70
2022-08-19T08:50:44.133Z,4.90
2022-08-19T08:53:17.452Z,5.80
2022-08-19T08:55:58.354Z,7.30
2022-08-19T08:58:59.042Z,7.00
2022-08-19T09:01:30.497Z,6.00
2022-08-19T09:04:02.888Z,4.50
2022-08-19T09:06:40.970Z,6.70
2022-08-19T09:09:33.503Z,7.70
2022-08-19T09:12:13.884Z,5.30
2022-08-19T09:14:58.157Z,6.20
2022-08-19T09:17:32.174Z,4.00
2022-08-19T09:20:09.063Z,5.20
2022-08-19T09:22:45.087Z,7.80
2022-08-19T09:25:17.854Z,6.10
2022-08-19T09:28:02.531Z,9.70
2022-08-19T09:30:41.152Z,7.80
2022-08-19T09:33:09.491Z,7.00
2022-08-19T09:35:50.129Z,7.40
2022-08-19T09:38:22.478Z,8.90
2022-08-19T09:40:50.994Z,8.70
2022-08-19T09:43:33.041Z,4.50
2022-08-19T09:46:03.101Z,4.20
2022-08-19T09:48:31.294Z,3.10
2022-08-19T09:51:28.776Z,4.40
2022-08-19T09:54:02.450Z,7.90
2022-08-19T09:56:34.233Z,5.10
2022-08-19T09:59:04.862Z,5.90
2022-08-19T10:01:34.096Z,6.30
2022-08-19T10:04:14.747Z,4.00
2022-08-19T10:06:53.698Z,6.00
2022-08-19T10:09:26.155Z,6.10
2022-08-19T10:11:55.211Z,6.00
2022-08-19T10:14:25.662Z,6.00
2022-08-19T10:16:54.020Z,5.00
2022-08-19T10:19:26.017Z,4.60
2022-08-19T10:21:55.714Z,5.30
2022-08-19T10:24:29.197Z,2.80
2022-08-19T10:26:59.805Z,7.10
2022-08-19T10:29:31.884Z,5.20
2022-08-19T10:32:04.481Z,4.10
2022-08-19T10:34:48.311Z,6.70
2022-08-19T10:37:23.835Z,3.40
2022-08-19T10:39:57.156Z,4.10
2022-08-19T10:42:25.527Z,3.60
2022-08-19T10:44:53.630Z,6.60
2022-08-19T10:47:25.466Z,5.10
2022-08-19T10:50:15.029Z,4.80
2022-08-19T10:52:48.918Z,5.40
2022-08-19T10:55:40.036Z,3.10
2022-08-19T10:58:15.080Z,6.10
2022-08-19T11:00:44.495Z,4.70
2022-08-19T11:03:13.199Z,6.80
2022-08-19T11:05:42.384Z,4.50
2022-08-19T11:08:23.487Z,5.00
2022-08-19T11:10:56.475Z,9.20
2022-08-19T11:13:25.762Z,5.40
2022-08-19T11:16:24.580Z,3.40
2022-08-19T11:18:55.899Z,7.20
2022-08-19T11:21:34.322Z,2.10
2022-08-19T11:24:07.101Z,2.50
2022-08-19T11:26:37.058Z,5.50
2022-08-19T11:29:12.475Z,8.20
2022-08-19T11:31:44.478Z,5.30
2022-08-19T11:34:19.396Z,7.10
2022-08-19T11:36:49.892Z,7.70
2022-08-19T11:39:21.269Z,4.70
2022-08-19T11:41:49.745Z,4.30
2022-08-19T11:44:18.816Z,11.50
2022-08-19T11:46:47.910Z,3.90
2022-08-19T11:49:19.861Z,4.80
2022-08-19T11:51:51.238Z,8.00
2022-08-19T11:54:19.502Z,7.90
2022-08-19T11:56:48.893Z,4.60
2022-08-19T11:59:17.129Z,4.30
2022-08-19T12:01:45.338Z,6.50
2022-08-19T12:04:13.566Z,4.30
2022-08-19T12:06:42.813Z,3.50
2022-08-19T12:09:11.897Z,5.70
2022-08-19T12:11:41.640Z,9.10
2022-08-19T12:14:15.235Z,6.30
2022-08-19T12:16:51.265Z,5.10
2022-08-19T12:19:22.345Z,6.70
2022-08-19T12:21:52.381Z,3.50
2022-08-19T12:24:24.290Z,8.20
2022-08-19T12:26:53.867Z,5.50
2022-08-19T12:29:26.425Z,3.60
2022-08-19T12:31:54.574Z,4.10
2022-08-19T12:34:22.879Z,7.00
2022-08-19T12:36:51.085Z,6.40
2022-08-19T12:39:19.426Z,5.30
2022-08-19T12:41:54.097Z,5.20
2022-08-19T12:44:29.606Z,8.10
2022-08-19T12:47:00.943Z,6.00
2022-08-19T12:49:54.438Z,7.00
2022-08-19T12:52:23.038Z,8.70
2022-08-19T12:54:54.672Z,7.50
2022-08-19T12:57:32.295Z,9.40
2022-08-19T13:00:12.605Z,7.70
2022-08-19T13:02:42.562Z,6.80
2022-08-19T13:05:13.054Z,5.40
2022-08-19T13:07:42.577Z,3.80
2022-08-19T13:10:13.517Z,4.70
2022-08-19T13:12:42.402Z,9.20
2022-08-19T13:15:12.278Z,11.20
2022-08-19T13:17:40.996Z,3.90
2022-08-19T13:20:11.444Z,7.00
2022-08-19T13:22:39.736Z,9.00
2022-08-19T13:25:09.038Z,11.50
2022-08-19T13:27:37.390Z,7.10
2022-08-19T13:30:28.621Z,7.60
2022-08-19T13:33:12.125Z,7.50
2022-08-19T13:35:58.247Z,6.60
2022-08-19T13:38:26.453Z,5.70
2022-08-19T13:40:56.917Z,4.30
2022-08-19T13:43:27.654Z,7.00
2022-08-19T13:45:58.855Z,4.40
2022-08-19T13:48:28.085Z,6.20
2022-08-19T13:50:59.652Z,6.00
2022-08-19T13:53:27.940Z,4.80
2022-08-19T13:55:56.316Z,3.90
2022-08-19T13:58:24.496Z,3.40
2022-08-19T14:00:52.781Z,2.00
2022-08-19T14:03:21.119Z,5.60
2022-08-19T14:05:49.301Z,4.50
2022-08-19T14:08:18.423Z,4.30
2022-08-19T14:10:47.290Z,8.60
2022-08-19T14:13:20.055Z,7.40
2022-08-19T14:15:48.534Z,7.60
2022-08-19T14:18:18.791Z,6.60
2022-08-19T14:20:47.001Z,3.90
2022-08-19T14:23:15.788Z,5.90
2022-08-19T14:25:44.637Z,9.60
2022-08-19T14:28:12.761Z,4.40
2022-08-19T14:30:40.955Z,8.90
2022-08-19T14:33:09.586Z,6.40
2022-08-19T14:35:38.767Z,17.00
2022-08-19T14:38:15.590Z,10.30
2022-08-19T14:40:44.008Z,8.40
2022-08-19T14:43:12.345Z,6.00
2022-08-19T14:45:41.181Z,15.20
2022-08-19T14:48:17.819Z,5.80
2022-08-19T14:50:48.029Z,7.80
2022-08-19T14:53:18.122Z,8.10
2022-08-19T14:55:47.581Z,8.40
2022-08-19T14:58:29.297Z,6.50
2022-08-19T15:01:02.294Z,4.30
2022-08-19T15:03:30.890Z,8.30
2022-08-19T15:06:00.197Z,23.00
2022-08-19T15:08:30.475Z,8.40
2022-08-19T15:10:59.873Z,4.70
2022-08-19T15:13:30.049Z,11.20
2022-08-19T15:15:58.335Z,3.80
2022-08-19T15:18:26.566Z,7.20
2022-08-19T15:20:55.194Z,6.40
2022-08-19T15:23:24.168Z,9.90
2022-08-19T15:25:56.650Z,6.40
2022-08-19T15:28:26.656Z,9.10
2022-08-19T15:30:55.052Z,13.80
2022-08-19T15:33:23.727Z,13.90
2022-08-19T15:35:52.020Z,14.00
2022-08-19T15:38:22.374Z,20.30
2022-08-19T15:40:52.359Z,5.70
2022-08-19T15:43:24.030Z,5.40
2022-08-19T15:45:52.175Z,9.30
2022-08-19T15:48:20.342Z,4.50
2022-08-19T15:50:48.460Z,7.50
2022-08-19T15:53:16.570Z,3.60
2022-08-19T15:55:46.106Z,8.70
2022-08-19T15:58:33.798Z,6.40
2022-08-19T16:01:26.801Z,7.70
2022-08-19T16:06:48.058Z,7.80
2022-08-19T16:09:18.155Z,4.40
2022-08-19T16:11:56.577Z,6.60
2022-08-19T16:14:25.837Z,4.60
2022-08-19T16:16:55.043Z,5.40
2022-08-19T16:19:24.477Z,6.40
2022-08-19T16:21:56.318Z,4.10
2022-08-19T16:24:27.976Z,6.40
2022-08-19T16:26:57.644Z,3.50
2022-08-19T16:29:34.683Z,8.90
2022-08-19T16:32:11.882Z,3.30
2022-08-19T16:34:41.651Z,5.60
2022-08-19T16:37:10.313Z,6.50
2022-08-19T16:39:39.302Z,4.20
2022-08-19T16:42:09.052Z,5.10
2022-08-19T16:44:42.219Z,2.90
2022-08-19T16:47:11.128Z,10.70
2022-08-19T16:49:53.590Z,8.70
2022-08-19T16:52:27.203Z,7.50
2022-08-19T16:54:55.558Z,5.40
2022-08-19T16:57:24.061Z,5.70
2022-08-19T16:59:52.532Z,3.70
2022-08-19T17:02:23.624Z,8.30
2022-08-19T17:04:59.398Z,5.70
2022-08-19T17:07:33.151Z,4.90
2022-08-19T17:10:05.605Z,5.90
2022-08-19T17:12:34.774Z,7.30
2022-08-19T17:15:04.134Z,4.20
2022-08-19T17:17:32.428Z,5.00
2022-08-19T17:20:02.716Z,10.00
2022-08-19T17:22:30.931Z,7.50
2022-08-19T17:24:59.174Z,5.20
2022-08-19T17:27:32.310Z,6.30
2022-08-19T17:32:34.914Z,8.20
2022-08-19T17:35:04.290Z,9.00
2022-08-19T17:37:33.674Z,7.40
2022-08-19T17:40:04.118Z,6.50
2022-08-19T17:42:32.480Z,8.60
2022-08-19T17:45:00.562Z,10.20
2022-08-19T17:47:29.398Z,10.40
2022-08-19T17:49:58.116Z,6.00
2022-08-19T17:52:26.510Z,8.70
2022-08-19T17:54:54.798Z,4.70
2022-08-19T17:57:22.926Z,8.10
2022-08-19T17:59:52.102Z,10.60
2022-08-19T18:02:21.859Z,7.70
2022-08-19T18:04:50.830Z,6.50
2022-08-19T18:07:21.857Z,5.70
2022-08-19T18:09:52.913Z,5.90
2022-08-19T18:12:27.037Z,8.50
2022-08-19T18:14:55.284Z,6.10
2022-08-19T18:17:24.605Z,5.10
2022-08-19T18:19:52.888Z,7.90
2022-08-19T18:22:49.471Z,4.50
2022-08-19T18:25:24.286Z,6.50
2022-08-19T18:27:57.434Z,5.20
2022-08-19T18:30:34.493Z,8.70
2022-08-19T18:33:13.864Z,8.50
2022-08-19T18:35:46.249Z,6.90
2022-08-19T18:38:36.481Z,6.20
2022-08-19T18:41:24.424Z,9.30
2022-08-19T18:44:11.681Z,4.80
2022-08-19T18:46:58.400Z,8.00
2022-08-19T18:49:31.705Z,4.50
2022-08-19T18:52:00.348Z,5.80
2022-08-19T18:54:30.491Z,4.50
2022-08-19T18:56:58.848Z,3.70
2022-08-19T18:59:29.274Z,8.90
2022-08-19T19:01:59.985Z,11.60
2022-08-19T19:04:36.141Z,4.10
2022-08-19T19:07:05.625Z,7.50
2022-08-19T19:09:34.112Z,4.80
2022-08-19T19:12:04.900Z,8.90
2022-08-19T19:14:49.131Z,4.40
2022-08-19T19:17:18.390Z,6.20
2022-08-19T19:19:46.610Z,9.00
2022-08-19T19:22:19.339Z,3.80
2022-08-19T19:27:20.627Z,5.20
2022-08-19T19:29:52.401Z,4.70
2022-08-19T19:32:30.671Z,4.40
2022-08-19T19:34:59.763Z,7.90
2022-08-19T19:37:27.855Z,7.50
2022-08-19T19:39:56.506Z,6.30
2022-08-19T19:42:25.461Z,4.80
2022-08-19T19:44:55.849Z,7.60
2022-08-19T19:47:24.616Z,5.70
2022-08-19T19:50:13.886Z,5.70
2022-08-19T19:52:45.914Z,6.40
2022-08-19T19:55:18.543Z,6.60
2022-08-19T19:57:48.983Z,6.00
2022-08-19T20:00:19.259Z,6.90
2022-08-19T20:02:50.459Z,7.60
2022-08-19T20:05:21.692Z,5.80
2022-08-19T20:08:10.320Z,7.30
2022-08-19T20:10:39.509Z,8.30
2022-08-19T20:13:09.487Z,5.50
2022-08-19T20:15:42.313Z,7.00
2022-08-19T20:18:13.518Z,5.70
2022-08-19T20:20:42.586Z,6.60
2022-08-19T20:23:13.965Z,5.80
2022-08-19T20:25:42.565Z,10.10
2022-08-19T20:28:19.373Z,6.00
2022-08-19T20:30:48.684Z,7.50
2022-08-19T20:33:17.094Z,6.60
2022-08-19T20:35:45.569Z,8.00
2022-08-19T20:38:13.767Z,10.90
2022-08-19T20:40:41.869Z,7.60
2022-08-19T20:43:12.243Z,9.70
2022-08-19T20:45:41.319Z,7.70
2022-08-19T20:48:12.462Z,8.80
2022-08-19T20:50:41.059Z,6.50
2022-08-19T20:53:11.504Z,7.50
2022-08-19T20:55:39.681Z,13.10
2022-08-19T20:58:08.757Z,11.20
2022-08-19T21:00:36.976Z,6.20
2022-08-19T21:03:06.881Z,12.80
2022-08-19T21:05:35.020Z,7.10
2022-08-19T21:08:04.736Z,6.30
2022-08-19T21:10:33.878Z,8.20
2022-08-19T21:13:03.968Z,9.20
2022-08-19T21:15:32.430Z,6.20
2022-08-19T21:18:00.565Z,5.70
2022-08-19T21:20:28.705Z,8.60
2022-08-19T21:22:56.822Z,6.60
2022-08-19T21:25:25.085Z,6.20
2022-08-19T21:27:53.200Z,6.20
2022-08-19T21:30:21.407Z,7.90
2022-08-19T21:32:52.497Z,10.00
2022-08-19T21:35:23.680Z,6.30
2022-08-19T21:37:52.219Z,8.20
2022-08-19T21:40:21.915Z,6.50
2022-08-19T21:42:49.997Z,6.90
2022-08-19T21:45:18.631Z,7.10
2022-08-19T21:47:47.201Z,10.00
2022-08-19T21:50:15.655Z,11.10
2022-08-19T21:52:43.777Z,6.50
2022-08-19T21:55:13.262Z,12.40
2022-08-19T21:57:42.799Z,6.40
2022-08-19T22:00:19.020Z,9.20
2022-08-19T22:02:47.491Z,8.20
2022-08-19T22:05:15.694Z,9.80
2022-08-19T22:07:43.972Z,5.70
2022-08-19T22:10:12.115Z,12.70
2022-08-19T22:12:47.359Z,7.80
2022-08-19T22:15:24.066Z,12.30
2022-08-19T22:17:52.443Z,7.00
2022-08-19T22:20:24.790Z,6.20
2022-08-19T22:22:58.706Z,7.10
2022-08-19T22:25:34.942Z,10.70
2022-08-19T22:28:06.398Z,6.80
2022-08-19T22:30:41.758Z,5.30
2022-08-19T22:33:17.030Z,12.80
2022-08-19T22:35:47.256Z,7.20
2022-08-19T22:38:16.306Z,7.70
2022-08-19T22:40:48.645Z,12.90
2022-08-19T22:43:26.440Z,6.20
2022-08-19T22:45:55.874Z,9.60
2022-08-19T22:48:28.410Z,7.60
2022-08-19T22:51:16.192Z,7.50
2022-08-19T22:53:46.755Z,8.20
2022-08-19T22:56:18.646Z,6.80
2022-08-19T22:58:50.159Z,6.30
2022-08-19T23:01:27.497Z,14.50
2022-08-19T23:04:00.222Z,12.70
2022-08-19T23:06:33.569Z,8.10
2022-08-19T23:09:07.262Z,7.50
2022-08-19T23:11:41.960Z,6.80
2022-08-19T23:14:12.714Z,8.40
2022-08-19T23:16:42.087Z,7.20
2022-08-19T23:19:11.205Z,9.50
2022-08-19T23:21:40.845Z,9.40
2022-08-19T23:24:09.973Z,7.20
2022-08-19T23:26:38.417Z,7.70
2022-08-19T23:29:25.090Z,10.00
2022-08-19T23:31:53.198Z,14.10
2022-08-19T23:34:21.379Z,8.00
2022-08-19T23:36:50.789Z,10.10
2022-08-19T23:39:19.519Z,9.60
2022-08-19T23:41:47.741Z,10.10
2022-08-19T23:44:15.851Z,8.00
2022-08-19T23:46:55.250Z,9.50
2022-08-19T23:49:25.978Z,7.90
2022-08-19T23:51:55.788Z,8.60
2022-08-19T23:54:34.261Z,14.80
2022-08-19T23:57:14.382Z,13.10
2022-08-19T23:59:45.789Z,10.30
